Skip Navigation LinksHome page > Weather > Current weather Skip Navigation Links

Current Weather

Winchester Regional, Winchester, Va.

For information only: do not use for flight planning or navigation.
Latest weather
Observation time Tuesday, January 19, 2021 2:35 AM EST
Local time Tuesday, January 19, 2021 2:54 AM EST
Flight conditions Visual Meteorological Conditions
Winds
Wind speed calm
Visibility 10 mi.
Sky condition
Ceiling 4,800 ft. broken clouds
Cloud layer scattered clouds 4,200 ft.
Cloud layer broken clouds 4,800 ft.
Cloud layer overcast 6,000 ft.
Temperature 32°F
Dewpoint 21°F
Altimeter 30.07 in.Hg
Derived measurements
Relative humidity 64%
Wind chill 32°F
Density altitude -1215 ft.
Remarks
Fully automated report.
Automated weather observing station with precipitation discriminator.
METAR KOKV 190735Z AUTO 00000KT 10SM SCT042 BKN048 OVC060 00/M06 A3007 RMK AO2

Settings

Location code

InnerDrive.Weather 4.0.6770.0 Release CLR 4.0.30319.42000
Copyright ©2018 Inner Drive Technology. All rights reserved. Portions Copyright ©1986-2018 David Braverman.

Find weather

Site navigation


Skip Navigation Links

Place info

Page info

PayPal - The safer, easier way to pay online!

Return home.

Copyright ©2021 Inner Drive Technology. Purveyors of fine, hand-crafted computer software. Page printed 2021-01-19T07:54:27 UTC.